Time;durP1;ratioP1;P1;durP2;ratioP2;P2;SDS_P1;SDS_P2;PMS_P1;PMS_P2;Temp;Humidity;BMP_temperature;BMP_pressure;BME280_temperature;BME280_humidity;BME280_pressure;Samples;Min_cycle;Max_cycle;Signal;HPM_P1;HPM_P2
2021/01/30 00:00:49;;;;;;;0.50;0.50;;;-1.80;99.90;;;;;;5070342;28;20211;-80
2021/01/30 00:03:15;;;;;;;0.60;0.60;;;-1.30;99.90;;;;;;5069762;28;20204;-81
2021/01/30 00:05:42;;;;;;;0.50;0.50;;;-1.90;99.90;;;;;;5069493;28;20238;-81
2021/01/30 00:08:10;;;;;;;0.50;0.50;;;-1.80;99.90;;;;;;5069841;28;20242;-81
2021/01/30 00:10:36;;;;;;;0.52;0.52;;;-1.80;99.90;;;;;;5070240;28;20250;-80
2021/01/30 00:13:03;;;;;;;0.50;0.50;;;-1.90;99.90;;;;;;5069409;28;20728;-80
2021/01/30 00:15:30;;;;;;;0.50;0.50;;;-1.80;99.90;;;;;;5069598;28;20261;-79
2021/01/30 00:17:58;;;;;;;0.50;0.50;;;-1.80;99.90;;;;;;5069514;28;20212;-79
2021/01/30 00:20:32;;;;;;;0.55;0.55;;;-1.80;99.90;;;;;;5069552;28;20652;-79
2021/01/30 00:22:59;;;;;;;0.50;0.50;;;-0.80;99.90;;;;;;5069353;28;20400;-79
2021/01/30 00:25:27;;;;;;;0.50;0.50;;;-1.70;99.90;;;;;;5069232;28;20246;-79
2021/01/30 00:27:54;;;;;;;0.50;0.50;;;-1.70;99.90;;;;;;5069698;28;20199;-79
2021/01/30 00:30:23;;;;;;;0.60;0.60;;;-1.70;99.90;;;;;;5069474;28;20293;-79
2021/01/30 00:32:51;;;;;;;0.50;0.50;;;-1.80;99.90;;;;;;5069680;28;20208;-79
2021/01/30 00:35:19;;;;;;;0.50;0.50;;;-1.70;99.90;;;;;;5069203;28;20204;-79
2021/01/30 00:37:45;;;;;;;0.50;0.50;;;-1.60;99.90;;;;;;5069245;28;20207;-79
2021/01/30 00:40:12;;;;;;;0.50;0.50;;;-1.70;99.90;;;;;;5068921;28;20215;-79
2021/01/30 00:42:38;;;;;;;0.50;0.50;;;-1.70;99.90;;;;;;5069391;28;20199;-80
2021/01/30 00:45:06;;;;;;;0.50;0.50;;;-1.00;99.90;;;;;;5069106;28;20207;-80
2021/01/30 00:47:32;;;;;;;0.50;0.50;;;-1.60;99.90;;;;;;5068984;28;20671;-80
2021/01/30 00:49:59;;;;;;;0.50;0.50;;;-1.60;99.90;;;;;;5068939;28;20472;-80
2021/01/30 00:52:25;;;;;;;0.50;0.50;;;-1.60;99.90;;;;;;5068700;28;20242;-80
2021/01/30 00:54:51;;;;;;;0.50;0.50;;;-0.50;99.90;;;;;;5069167;28;20253;-80
2021/01/30 00:57:18;;;;;;;0.50;0.50;;;-1.50;99.90;;;;;;5068988;28;20202;-80
2021/01/30 00:59:44;;;;;;;0.50;0.50;;;-1.50;99.90;;;;;;5068688;28;20199;-79
2021/01/30 01:02:11;;;;;;;0.50;0.50;;;-1.10;99.90;;;;;;5068643;28;20556;-80
2021/01/30 01:04:37;;;;;;;0.52;0.52;;;-1.50;99.90;;;;;;5069130;28;20200;-80
2021/01/30 01:07:04;;;;;;;0.50;0.50;;;-1.40;99.90;;;;;;5068275;28;20721;-80
2021/01/30 01:09:30;;;;;;;0.50;0.50;;;-0.20;99.90;;;;;;5068443;28;20659;-79
2021/01/30 01:11:57;;;;;;;0.50;0.50;;;-0.40;99.90;;;;;;5068518;28;20277;-80
2021/01/30 01:14:26;;;;;;;0.50;0.50;;;-1.50;99.90;;;;;;5068551;28;20729;-80
2021/01/30 01:16:52;;;;;;;0.50;0.50;;;-1.40;99.90;;;;;;5068795;28;20227;-80
2021/01/30 01:19:18;;;;;;;0.50;0.50;;;-1.40;99.90;;;;;;5068655;28;20254;-80
2021/01/30 01:21:49;;;;;;;0.50;0.50;;;-1.40;99.90;;;;;;5068117;28;20210;-79
2021/01/30 01:24:17;;;;;;;0.50;0.50;;;-1.40;99.90;;;;;;5068307;28;20207;-80
2021/01/30 01:26:44;;;;;;;0.50;0.50;;;-1.30;99.90;;;;;;5067873;28;20364;-80
2021/01/30 01:29:12;;;;;;;0.50;0.50;;;-1.30;99.90;;;;;;5068184;28;20235;-83
2021/01/30 01:31:38;;;;;;;0.50;0.50;;;-1.30;99.90;;;;;;5068618;28;20211;-81
2021/01/30 01:34:04;;;;;;;0.50;0.50;;;-1.30;99.90;;;;;;5068417;28;20200;-81
2021/01/30 01:36:30;;;;;;;0.50;0.50;;;-1.30;99.90;;;;;;5068025;28;20208;-81
2021/01/30 01:38:56;;;;;;;0.50;0.50;;;-1.30;99.90;;;;;;5067956;28;20230;-81
2021/01/30 01:41:23;;;;;;;0.50;0.50;;;-1.30;99.90;;;;;;5068051;28;20210;-80
2021/01/30 01:43:51;;;;;;;0.50;0.50;;;-1.20;99.90;;;;;;5068307;28;20211;-80
2021/01/30 01:46:25;;;;;;;0.50;0.50;;;-1.20;99.90;;;;;;5067804;28;20222;-80
2021/01/30 01:48:56;;;;;;;0.50;0.50;;;-1.20;99.90;;;;;;5068174;28;20253;-80
2021/01/30 01:51:33;;;;;;;0.50;0.50;;;-1.20;99.90;;;;;;5067818;28;20703;-80
2021/01/30 01:54:04;;;;;;;0.50;0.50;;;-1.20;99.90;;;;;;5067018;28;20268;-80
2021/01/30 01:56:33;;;;;;;0.55;0.55;;;-1.20;99.90;;;;;;5067607;28;20207;-81
2021/01/30 01:59:05;;;;;;;0.50;0.50;;;-1.10;99.90;;;;;;5067673;28;20234;-81
2021/01/30 02:01:34;;;;;;;0.50;0.50;;;-1.10;99.90;;;;;;5067565;28;20264;-80
2021/01/30 02:04:02;;;;;;;0.50;0.50;;;-1.10;99.90;;;;;;5067414;28;20268;-81
2021/01/30 02:06:28;;;;;;;0.50;0.50;;;-1.10;99.90;;;;;;5067305;28;20223;-80
2021/01/30 02:08:55;;;;;;;0.50;0.50;;;-0.30;99.90;;;;;;5067588;28;20261;-81
2021/01/30 02:11:21;;;;;;;0.50;0.50;;;-1.10;99.90;;;;;;5067702;28;20203;-80
2021/01/30 02:13:50;;;;;;;0.50;0.50;;;-1.10;99.90;;;;;;5067384;28;20203;-80
2021/01/30 02:16:30;;;;;;;0.50;0.50;;;-1.10;99.90;;;;;;5067171;28;20253;-80
2021/01/30 02:19:17;;;;;;;0.50;0.50;;;-1.00;99.90;;;;;;5067490;28;20204;-80
2021/01/30 02:22:14;;;;;;;0.50;0.50;;;-1.00;99.90;;;;;;5067050;28;20416;-80
2021/01/30 02:25:02;;;;;;;0.50;0.50;;;-1.00;99.90;;;;;;5066564;28;20203;-80
2021/01/30 02:27:56;;;;;;;0.50;0.50;;;-1.10;99.90;;;;;;5067128;28;20358;-81
2021/01/30 02:31:01;;;;;;;0.50;0.50;;;-1.00;99.90;;;;;;5037219;28;20239;-80
2021/01/30 02:33:47;;;;;;;0.50;0.50;;;-1.10;99.90;;;;;;5067208;28;20210;-80
2021/01/30 02:36:35;;;;;;;0.50;0.50;;;-1.00;99.90;;;;;;5022760;28;20207;-80
2021/01/30 02:39:10;;;;;;;0.50;0.50;;;-1.10;99.90;;;;;;5066972;28;20203;-80
2021/01/30 02:41:40;;;;;;;0.50;0.50;;;-1.00;99.90;;;;;;5067659;28;20265;-80
2021/01/30 02:44:11;;;;;;;0.50;0.50;;;-1.00;99.90;;;;;;5067632;28;20207;-80
2021/01/30 02:46:40;;;;;;;0.50;0.50;;;-1.00;99.90;;;;;;5067510;28;20227;-80
2021/01/30 02:49:10;;;;;;;0.50;0.50;;;-1.00;99.90;;;;;;5067309;28;20203;-80
2021/01/30 02:51:41;;;;;;;0.40;0.40;;;-1.00;99.90;;;;;;5067510;28;20203;-80
2021/01/30 02:54:09;;;;;;;0.50;0.50;;;-1.00;99.90;;;;;;5067434;28;20199;-80
2021/01/30 02:56:36;;;;;;;0.50;0.50;;;-1.00;99.90;;;;;;5067586;28;20257;-80
2021/01/30 02:59:07;;;;;;;0.47;0.47;;;-0.50;99.90;;;;;;5064814;28;20675;-80
2021/01/30 03:01:35;;;;;;;0.50;0.50;;;-1.00;99.90;;;;;;5066526;28;20222;-80
2021/01/30 03:04:04;;;;;;;0.50;0.50;;;-1.00;99.90;;;;;;5067322;28;20214;-80
2021/01/30 03:06:37;;;;;;;0.47;0.47;;;-1.00;99.90;;;;;;5071272;28;20468;-80
2021/01/30 03:09:12;;;;;;;0.50;0.50;;;-1.00;99.90;;;;;;5071669;28;20207;-80
2021/01/30 03:11:44;;;;;;;0.50;0.50;;;-1.00;99.90;;;;;;5072196;28;20210;-80
2021/01/30 03:14:15;;;;;;;0.40;0.40;;;-1.00;99.90;;;;;;5071699;28;20628;-80
2021/01/30 03:16:43;;;;;;;0.40;0.40;;;-0.90;99.90;;;;;;5071651;28;20204;-80
2021/01/30 03:19:16;;;;;;;0.50;0.50;;;-0.90;99.90;;;;;;5071764;28;20207;-80
2021/01/30 03:21:44;;;;;;;0.50;0.50;;;-0.90;99.90;;;;;;5071557;28;20214;-80
2021/01/30 03:24:12;;;;;;;0.45;0.45;;;-0.90;99.90;;;;;;5071369;28;20203;-80
2021/01/30 03:26:45;;;;;;;0.47;0.47;;;-0.90;99.90;;;;;;5071993;28;20260;-80
2021/01/30 03:29:12;;;;;;;0.50;0.50;;;-0.90;99.90;;;;;;5071174;28;20276;-81
2021/01/30 03:31:39;;;;;;;0.40;0.40;;;-0.80;99.90;;;;;;5071776;28;20208;-81
2021/01/30 03:34:05;;;;;;;0.43;0.43;;;-0.80;99.90;;;;;;5071564;28;20204;-81
2021/01/30 03:36:31;;;;;;;0.40;0.40;;;-0.80;99.90;;;;;;5071168;28;20208;-81
2021/01/30 03:38:58;;;;;;;0.40;0.40;;;-0.80;99.90;;;;;;5071093;28;20583;-80
2021/01/30 03:41:24;;;;;;;0.40;0.40;;;-0.80;99.90;;;;;;5071402;28;20241;-81
2021/01/30 03:43:51;;;;;;;0.40;0.40;;;-0.80;99.90;;;;;;5071556;28;20204;-81
2021/01/30 03:46:17;;;;;;;0.40;0.40;;;-0.80;99.90;;;;;;5070813;28;20243;-81
2021/01/30 03:48:43;;;;;;;0.40;0.40;;;-0.70;99.90;;;;;;5070953;28;20211;-80
2021/01/30 03:51:09;;;;;;;0.40;0.40;;;-0.70;99.90;;;;;;5070918;28;20261;-80
2021/01/30 03:53:37;;;;;;;0.50;0.50;;;-0.70;99.90;;;;;;5071479;28;20204;-82
2021/01/30 03:56:04;;;;;;;0.50;0.50;;;-0.70;99.90;;;;;;5070969;28;20250;-81
2021/01/30 03:58:31;;;;;;;0.50;0.50;;;-0.70;99.90;;;;;;5070761;28;20412;-81
2021/01/30 04:00:57;;;;;;;0.50;0.50;;;-0.70;99.90;;;;;;5070642;28;20210;-81
2021/01/30 04:03:23;;;;;;;0.50;0.50;;;-0.20;99.90;;;;;;5071003;28;20208;-81
2021/01/30 04:05:49;;;;;;;0.50;0.50;;;-0.10;99.90;;;;;;5070834;28;20227;-81
2021/01/30 04:08:15;;;;;;;0.50;0.50;;;-0.70;99.90;;;;;;5070598;28;20360;-81
2021/01/30 04:10:41;;;;;;;0.45;0.45;;;-0.60;99.90;;;;;;5070643;28;20257;-81
2021/01/30 04:13:10;;;;;;;0.40;0.40;;;-0.60;99.90;;;;;;5070857;28;20608;-81
2021/01/30 04:15:42;;;;;;;0.40;0.40;;;-0.60;99.90;;;;;;5070561;28;20208;-81
2021/01/30 04:18:10;;;;;;;0.50;0.50;;;-0.70;99.90;;;;;;5070761;28;20207;-82
2021/01/30 04:20:36;;;;;;;0.40;0.40;;;-0.60;99.90;;;;;;5070893;28;20204;-81
2021/01/30 04:23:03;;;;;;;0.50;0.50;;;-0.60;99.90;;;;;;5070484;28;20569;-81
2021/01/30 04:25:29;;;;;;;0.40;0.40;;;-0.70;99.90;;;;;;5070154;28;20219;-81
2021/01/30 04:27:55;;;;;;;0.43;0.43;;;-0.60;99.90;;;;;;5070378;28;20207;-81
2021/01/30 04:30:23;;;;;;;0.40;0.40;;;-0.60;99.90;;;;;;5070508;28;20235;-81
2021/01/30 04:32:50;;;;;;;0.40;0.40;;;-0.60;99.90;;;;;;5070519;28;20200;-81
2021/01/30 04:35:22;;;;;;;0.50;0.50;;;-0.60;99.90;;;;;;5070109;28;20199;-81
2021/01/30 04:37:48;;;;;;;0.40;0.40;;;-0.50;99.90;;;;;;5070323;28;20203;-81
2021/01/30 04:40:22;;;;;;;0.40;0.40;;;-0.60;99.90;;;;;;5069988;28;20200;-81
2021/01/30 04:42:52;;;;;;;0.50;0.50;;;-0.60;99.90;;;;;;5070206;28;20203;-81
2021/01/30 04:45:28;;;;;;;0.45;0.45;;;-0.60;99.90;;;;;;5069962;28;20203;-82
2021/01/30 04:48:07;;;;;;;0.40;0.40;;;-0.50;99.90;;;;;;5070245;28;20264;-81
2021/01/30 04:50:41;;;;;;;0.40;0.40;;;-0.50;99.90;;;;;;5069855;28;20231;-81
2021/01/30 04:53:15;;;;;;;0.50;0.50;;;-0.50;99.90;;;;;;5070150;28;20203;-81
2021/01/30 04:55:55;;;;;;;0.45;0.45;;;-0.50;99.90;;;;;;5069746;28;20246;-81
2021/01/30 04:58:31;;;;;;;0.40;0.40;;;-0.50;99.90;;;;;;5070083;28;20216;-81
2021/01/30 05:01:11;;;;;;;0.40;0.40;;;-0.50;99.90;;;;;;5069680;28;20199;-81
2021/01/30 05:03:55;;;;;;;0.50;0.50;;;-0.50;99.90;;;;;;5070182;28;20210;-81
2021/01/30 05:06:28;;;;;;;0.40;0.40;;;-0.50;99.90;;;;;;5069820;28;20683;-81
2021/01/30 05:08:59;;;;;;;0.50;0.50;;;-0.50;99.90;;;;;;5070034;28;20200;-81
2021/01/30 05:11:29;;;;;;;0.50;0.50;;;-0.50;99.90;;;;;;5069446;28;20215;-81
2021/01/30 05:14:01;;;;;;;0.50;0.50;;;-0.40;99.90;;;;;;5069490;28;20207;-81
2021/01/30 05:16:31;;;;;;;0.50;0.50;;;-0.40;99.90;;;;;;5069452;28;20207;-81
2021/01/30 05:19:02;;;;;;;0.50;0.50;;;-0.50;99.90;;;;;;5069254;28;20227;-82
2021/01/30 05:21:38;;;;;;;0.50;0.50;;;-0.40;99.90;;;;;;5069228;28;20551;-81
2021/01/30 05:24:06;;;;;;;0.50;0.50;;;-0.40;99.90;;;;;;5069490;28;20203;-81
2021/01/30 05:26:42;;;;;;;0.50;0.50;;;-0.40;99.90;;;;;;5068884;28;20215;-81
2021/01/30 05:29:13;;;;;;;0.50;0.50;;;-0.40;99.90;;;;;;5068776;28;20612;-81
2021/01/30 05:31:50;;;;;;;0.50;0.50;;;-0.40;99.90;;;;;;5069325;28;20223;-81
2021/01/30 05:34:23;;;;;;;0.50;0.50;;;-0.40;99.90;;;;;;5068913;28;20677;-81
2021/01/30 05:36:55;;;;;;;0.50;0.50;;;-0.40;99.90;;;;;;5069061;28;20207;-81
2021/01/30 05:39:45;;;;;;;0.50;0.50;;;-0.40;99.90;;;;;;5069294;28;20203;-81
2021/01/30 05:42:21;;;;;;;0.50;0.50;;;-0.40;99.90;;;;;;5065681;28;20207;-81
2021/01/30 05:44:53;;;;;;;0.50;0.50;;;-0.40;99.90;;;;;;5068817;28;20218;-81
2021/01/30 05:47:25;;;;;;;0.50;0.50;;;-0.40;99.90;;;;;;5068903;28;20223;-82
2021/01/30 05:50:00;;;;;;;0.50;0.50;;;-0.40;99.90;;;;;;5069024;28;20265;-81
2021/01/30 05:52:29;;;;;;;0.50;0.50;;;-0.40;99.90;;;;;;5068602;28;20207;-81
2021/01/30 05:54:57;;;;;;;0.50;0.50;;;-0.20;99.90;;;;;;5068596;28;20200;-80
2021/01/30 05:57:23;;;;;;;0.50;0.50;;;-0.40;99.90;;;;;;5068815;28;20713;-82
2021/01/30 05:59:52;;;;;;;0.45;0.45;;;-0.40;99.90;;;;;;5068794;28;20697;-82
2021/01/30 06:02:21;;;;;;;0.50;0.50;;;-0.40;99.90;;;;;;5068662;28;20211;-82
2021/01/30 06:04:47;;;;;;;0.50;0.50;;;-0.40;99.90;;;;;;5068270;28;20203;-82
2021/01/30 06:07:34;;;;;;;0.50;0.50;;;-0.40;99.90;;;;;;5068136;28;20227;-82
2021/01/30 06:10:23;;;;;;;0.50;0.50;;;-0.40;99.90;;;;;;5068334;28;20600;-82
2021/01/30 06:13:07;;;;;;;0.50;0.50;;;-0.40;99.90;;;;;;5068709;28;20207;-82
2021/01/30 06:15:35;;;;;;;0.50;0.50;;;-0.40;99.90;;;;;;5068501;28;20203;-82
2021/01/30 06:18:33;;;;;;;0.50;0.50;;;-0.40;99.90;;;;;;5068450;28;20203;-83
2021/01/30 06:21:09;;;;;;;0.50;0.50;;;-0.40;99.90;;;;;;5067907;28;20558;-82
2021/01/30 06:23:37;;;;;;;0.50;0.50;;;-0.40;99.90;;;;;;5068897;28;20203;-82
2021/01/30 06:26:11;;;;;;;0.50;0.50;;;-0.50;99.90;;;;;;5068239;28;20211;-82
2021/01/30 06:28:41;;;;;;;0.40;0.40;;;-0.50;99.90;;;;;;5068564;28;20561;-82
2021/01/30 06:31:19;;;;;;;0.50;0.50;;;-0.40;99.90;;;;;;5068490;28;20210;-81
2021/01/30 06:33:48;;;;;;;0.50;0.50;;;-0.50;99.90;;;;;;5068093;28;20484;-81
2021/01/30 06:36:17;;;;;;;0.50;0.50;;;-0.50;99.90;;;;;;5067786;28;20192;-82
2021/01/30 06:38:47;;;;;;;0.50;0.50;;;-0.50;99.90;;;;;;5067823;28;20207;-81
2021/01/30 06:41:20;;;;;;;0.50;0.50;;;-0.50;99.90;;;;;;5068013;28;20261;-81
2021/01/30 06:43:51;;;;;;;0.45;0.45;;;-0.50;99.90;;;;;;5067947;28;20196;-81
2021/01/30 06:46:20;;;;;;;0.50;0.50;;;-0.50;99.90;;;;;;5067711;28;20226;-81
2021/01/30 06:48:48;;;;;;;0.50;0.50;;;-0.50;99.90;;;;;;5067895;28;20204;-81
2021/01/30 06:51:22;;;;;;;0.50;0.50;;;-0.50;99.90;;;;;;5067553;28;20252;-81
2021/01/30 06:53:49;;;;;;;0.50;0.50;;;-0.50;99.90;;;;;;5067984;28;20210;-81
2021/01/30 06:56:21;;;;;;;0.50;0.50;;;-0.40;99.90;;;;;;5067793;28;20195;-80
2021/01/30 06:58:49;;;;;;;0.50;0.50;;;-0.50;99.90;;;;;;5067909;28;20673;-80
2021/01/30 07:01:18;;;;;;;0.50;0.50;;;-0.40;99.90;;;;;;5067802;28;20446;-80
2021/01/30 07:04:03;;;;;;;0.50;0.50;;;-0.40;99.90;;;;;;5067752;28;20214;-82
2021/01/30 07:06:36;;;;;;;0.50;0.50;;;-0.50;99.90;;;;;;5067509;28;20377;-81
2021/01/30 07:09:15;;;;;;;0.50;0.50;;;-0.40;99.90;;;;;;5067569;28;20255;-81
2021/01/30 07:11:54;;;;;;;0.50;0.50;;;-0.40;99.90;;;;;;5067641;28;20199;-83
2021/01/30 07:14:56;;;;;;;0.50;0.50;;;-0.40;99.90;;;;;;5067770;28;20203;-82
2021/01/30 07:17:41;;;;;;;0.50;0.50;;;-0.40;99.90;;;;;;5039991;28;20256;-85
2021/01/30 07:20:33;;;;;;;0.50;0.50;;;-0.50;99.90;;;;;;5067892;28;20207;-81
2021/01/30 07:23:05;;;;;;;0.50;0.50;;;-0.40;99.90;;;;;;5067621;28;20215;-81
2021/01/30 07:25:39;;;;;;;0.50;0.50;;;-0.50;99.90;;;;;;5067548;28;20670;-84
2021/01/30 07:28:15;;;;;;;0.50;0.50;;;-0.40;99.90;;;;;;5068188;28;20200;-81
2021/01/30 07:30:46;;;;;;;0.50;0.50;;;-0.60;99.90;;;;;;5067372;28;20242;-84
2021/01/30 07:33:17;;;;;;;0.50;0.50;;;-0.60;99.90;;;;;;5067338;28;20258;-80
2021/01/30 07:35:52;;;;;;;0.50;0.50;;;-0.60;99.90;;;;;;5067724;28;20203;-84
2021/01/30 07:38:23;;;;;;;0.50;0.50;;;-0.70;99.90;;;;;;5067862;28;20561;-81
2021/01/30 07:40:57;;;;;;;0.50;0.50;;;-0.70;99.90;;;;;;5067545;28;20207;-81
2021/01/30 07:43:25;;;;;;;0.50;0.50;;;-0.70;99.90;;;;;;5067682;28;20204;-80
2021/01/30 07:46:09;;;;;;;0.50;0.50;;;-0.70;99.90;;;;;;5067790;28;20246;-81
2021/01/30 07:48:41;;;;;;;0.50;0.50;;;0.30;99.90;;;;;;5067814;28;20538;-81
2021/01/30 07:51:11;;;;;;;0.50;0.50;;;-0.90;99.90;;;;;;5068912;28;20703;-81
2021/01/30 07:53:42;;;;;;;0.50;0.50;;;-0.90;99.90;;;;;;5071434;28;20648;-83
2021/01/30 07:56:22;;;;;;;0.50;0.50;;;-0.90;99.90;;;;;;5071463;28;20214;-82
2021/01/30 07:59:03;;;;;;;0.50;0.50;;;-0.90;99.90;;;;;;5070857;28;20725;-83
2021/01/30 08:01:54;;;;;;;0.50;0.50;;;-0.80;99.90;;;;;;5070880;28;20515;-80
2021/01/30 08:04:50;;;;;;;0.50;0.50;;;-0.80;99.90;;;;;;5071325;28;20207;-85
2021/01/30 08:07:27;;;;;;;0.50;0.50;;;-0.80;99.90;;;;;;5070257;28;20224;-81
2021/01/30 08:10:10;;;;;;;0.60;0.60;;;-0.80;99.90;;;;;;5070892;28;20260;-82
2021/01/30 08:12:54;;;;;;;0.50;0.50;;;-0.70;99.90;;;;;;5071138;28;20226;-81
2021/01/30 08:15:26;;;;;;;0.50;0.50;;;-0.70;99.90;;;;;;5070976;28;20296;-81
2021/01/30 08:18:05;;;;;;;0.50;0.50;;;-0.60;99.90;;;;;;5071002;28;20206;-81
2021/01/30 08:20:39;;;;;;;0.60;0.60;;;-0.50;99.90;;;;;;5070087;28;20203;-81
2021/01/30 08:23:09;;;;;;;0.50;0.50;;;-0.50;99.90;;;;;;5070980;28;20199;-82
2021/01/30 08:25:47;;;;;;;0.50;0.50;;;-0.60;99.90;;;;;;5071297;28;20560;-80
2021/01/30 08:28:20;;;;;;;0.50;0.50;;;-0.50;99.90;;;;;;5070577;28;20215;-80
2021/01/30 08:30:51;;;;;;;0.60;0.60;;;-0.40;99.90;;;;;;5000724;28;20252;-80
2021/01/30 08:33:17;;;;;;;0.50;0.50;;;-0.30;99.90;;;;;;5028509;28;20207;-80
2021/01/30 08:35:47;;;;;;;0.50;0.50;;;-0.30;99.90;;;;;;5069956;28;20203;-81
2021/01/30 08:38:36;;;;;;;0.60;0.60;;;-0.30;99.90;;;;;;5061185;28;20211;-81
2021/01/30 08:41:31;;;;;;;0.57;0.57;;;-0.30;99.90;;;;;;5065849;28;20212;-81
2021/01/30 08:43:58;;;;;;;0.50;0.50;;;-0.30;99.90;;;;;;5057551;28;20294;-81
2021/01/30 08:46:30;;;;;;;0.50;0.50;;;-0.30;99.90;;;;;;5068833;28;20249;-81
2021/01/30 08:49:19;;;;;;;0.50;0.50;;;-0.30;99.90;;;;;;5069604;28;20208;-82
2021/01/30 08:51:47;;;;;;;0.50;0.50;;;-0.20;99.90;;;;;;5076375;28;20207;-81
2021/01/30 08:54:35;;;;;;;0.50;0.50;;;-0.10;99.90;;;;;;5069227;28;20203;-83
2021/01/30 08:57:03;;;;;;;0.55;0.55;;;-0.20;99.90;;;;;;5069216;28;20195;-82
2021/01/30 08:59:48;;;;;;;0.55;0.55;;;-0.10;99.90;;;;;;5068887;28;20441;-81
2021/01/30 09:02:50;;;;;;;0.60;0.60;;;-0.10;99.90;;;;;;5069233;28;20187;-82
2021/01/30 09:05:42;;;;;;;0.50;0.50;;;-0.10;99.90;;;;;;5069218;28;20265;-82
2021/01/30 09:08:42;;;;;;;0.50;0.50;;;-0.10;99.90;;;;;;5059090;28;20682;-82
2021/01/30 09:11:23;;;;;;;0.60;0.60;;;0.00;99.90;;;;;;5069791;28;20196;-82
2021/01/30 09:14:06;;;;;;;0.50;0.50;;;0.00;99.90;;;;;;5070766;28;20203;-81
2021/01/30 09:16:43;;;;;;;0.50;0.50;;;0.00;99.90;;;;;;5074278;28;20200;-82
2021/01/30 09:19:17;;;;;;;0.50;0.50;;;0.00;99.90;;;;;;5069538;28;20207;-82
2021/01/30 09:21:53;;;;;;;0.60;0.60;;;0.80;99.90;;;;;;5068799;28;20207;-82
2021/01/30 09:24:30;;;;;;;0.55;0.55;;;0.00;99.90;;;;;;5069831;28;20202;-82
2021/01/30 09:27:05;;;;;;;0.50;0.50;;;0.00;99.90;;;;;;5070422;28;20223;-81
2021/01/30 09:29:36;;;;;;;0.50;0.50;;;0.00;99.90;;;;;;5066314;28;20292;-82
2021/01/30 09:32:04;;;;;;;0.50;0.50;;;0.00;99.90;;;;;;5066883;28;20261;-81
2021/01/30 09:34:33;;;;;;;0.50;0.50;;;0.00;99.90;;;;;;5069374;28;20380;-81
2021/01/30 09:36:59;;;;;;;0.50;0.50;;;0.00;99.90;;;;;;5069857;28;20211;-81
2021/01/30 09:39:29;;;;;;;0.50;0.50;;;0.10;99.90;;;;;;5069235;28;20210;-81
2021/01/30 09:42:07;;;;;;;0.50;0.50;;;0.00;99.90;;;;;;5069918;28;20199;-81
2021/01/30 09:44:33;;;;;;;0.50;0.50;;;0.10;99.90;;;;;;5068573;28;20207;-81
2021/01/30 09:47:05;;;;;;;0.50;0.50;;;0.10;99.90;;;;;;5069897;28;20220;-81
2021/01/30 09:49:35;;;;;;;0.50;0.50;;;0.00;99.90;;;;;;5069265;28;20228;-81
2021/01/30 09:52:04;;;;;;;0.50;0.50;;;0.00;99.90;;;;;;5069770;28;20195;-81
2021/01/30 09:54:30;;;;;;;0.50;0.50;;;0.00;99.90;;;;;;5069069;28;20253;-81
2021/01/30 09:57:02;;;;;;;0.50;0.50;;;0.00;99.90;;;;;;5069569;28;20686;-84
2021/01/30 09:59:30;;;;;;;0.50;0.50;;;-0.10;99.90;;;;;;5069137;28;20476;-81
2021/01/30 10:02:10;;;;;;;0.50;0.50;;;0.00;99.90;;;;;;5069340;28;20199;-81
2021/01/30 10:04:36;;;;;;;0.50;0.50;;;-0.10;99.90;;;;;;5069303;28;20631;-81
2021/01/30 10:07:07;;;;;;;0.50;0.50;;;-0.10;99.90;;;;;;5069114;28;20215;-81
2021/01/30 10:12:33;;;;;;;0.50;0.50;;;-0.10;99.90;;;;;;5057906;28;20294;-81
2021/01/30 10:14:59;;;;;;;0.50;0.50;;;0.00;99.90;;;;;;5068200;28;20212;-81
2021/01/30 10:17:30;;;;;;;0.50;0.50;;;-0.10;99.90;;;;;;5068465;28;20253;-83
2021/01/30 10:19:59;;;;;;;0.50;0.50;;;-0.10;99.90;;;;;;5068585;28;20207;-82
2021/01/30 10:22:37;;;;;;;0.50;0.50;;;-0.20;99.90;;;;;;5068367;28;20250;-82
2021/01/30 10:25:07;;;;;;;0.50;0.50;;;0.30;99.90;;;;;;5068435;28;20208;-83
2021/01/30 10:27:34;;;;;;;0.50;0.50;;;-0.10;99.90;;;;;;5071091;28;20288;-83
2021/01/30 10:30:00;;;;;;;0.50;0.50;;;-0.10;99.90;;;;;;5067464;28;20242;-82
2021/01/30 10:32:39;;;;;;;0.50;0.50;;;-0.10;99.90;;;;;;5068442;28;20261;-82
2021/01/30 10:35:08;;;;;;;0.50;0.50;;;0.00;99.90;;;;;;5068266;28;20676;-82
2021/01/30 10:37:40;;;;;;;0.50;0.50;;;0.00;99.90;;;;;;5068560;28;20203;-82
2021/01/30 10:40:18;;;;;;;0.50;0.50;;;0.10;99.90;;;;;;5068361;28;20257;-82
2021/01/30 10:42:47;;;;;;;0.50;0.50;;;0.20;99.90;;;;;;5068350;28;20208;-84
2021/01/30 10:45:23;;;;;;;0.50;0.50;;;0.30;99.90;;;;;;5067145;28;20195;-84
2021/01/30 10:47:59;;;;;;;0.50;0.50;;;0.40;99.90;;;;;;5068509;28;20269;-83
2021/01/30 10:50:30;;;;;;;0.50;0.50;;;0.50;99.90;;;;;;5065955;28;20273;-84
2021/01/30 10:53:15;;;;;;;0.50;0.50;;;0.50;99.90;;;;;;5068418;28;20207;-83
2021/01/30 10:55:42;;;;;;;0.50;0.50;;;0.70;99.90;;;;;;5067925;28;20195;-84
2021/01/30 10:58:13;;;;;;;0.50;0.50;;;0.80;99.90;;;;;;5068674;28;20199;-84
2021/01/30 11:00:39;;;;;;;0.50;0.50;;;0.80;99.90;;;;;;5067458;28;20578;-84
2021/01/30 11:03:20;;;;;;;0.50;0.50;;;0.70;99.90;;;;;;5068272;28;20663;-83
2021/01/30 11:05:46;;;;;;;0.50;0.50;;;0.80;99.90;;;;;;5067697;28;20214;-83
2021/01/30 11:08:28;;;;;;;0.50;0.50;;;0.80;99.90;;;;;;5067948;28;20199;-83
2021/01/30 11:11:04;;;;;;;0.50;0.50;;;0.80;99.90;;;;;;5068088;28;20207;-83
2021/01/30 11:13:35;;;;;;;0.50;0.50;;;0.80;99.90;;;;;;5067886;28;20559;-83
2021/01/30 11:16:10;;;;;;;0.50;0.50;;;0.70;99.90;;;;;;5067257;28;20200;-84
2021/01/30 11:18:40;;;;;;;0.57;0.57;;;0.70;99.90;;;;;;5067816;28;20195;-84
2021/01/30 11:21:10;;;;;;;0.50;0.50;;;0.60;99.90;;;;;;5066029;28;20217;-84
2021/01/30 11:23:43;;;;;;;0.57;0.57;;;0.60;99.90;;;;;;5068089;28;20211;-84
2021/01/30 11:26:19;;;;;;;0.60;0.60;;;0.60;99.90;;;;;;5069310;28;20203;-83
2021/01/30 11:28:46;;;;;;;0.50;0.50;;;0.50;99.90;;;;;;5074838;28;20317;-85
2021/01/30 11:31:13;;;;;;;0.50;0.50;;;0.50;99.90;;;;;;5073850;28;20207;-82
2021/01/30 11:33:48;;;;;;;0.50;0.50;;;0.40;99.90;;;;;;5071789;28;20200;-83
2021/01/30 11:36:16;;;;;;;0.50;0.50;;;0.40;99.90;;;;;;5071237;28;20246;-83
2021/01/30 11:38:44;;;;;;;0.60;0.60;;;0.40;99.90;;;;;;5071684;28;20231;-83
2021/01/30 11:41:10;;;;;;;0.50;0.50;;;0.30;99.90;;;;;;5071611;28;20735;-83
2021/01/30 11:43:36;;;;;;;0.50;0.50;;;0.40;99.90;;;;;;5069497;28;20261;-83
2021/01/30 11:46:02;;;;;;;0.50;0.50;;;0.40;99.90;;;;;;5070501;28;20224;-84
2021/01/30 11:48:28;;;;;;;0.50;0.50;;;0.40;99.90;;;;;;5070332;28;20203;-83
2021/01/30 11:50:55;;;;;;;0.50;0.50;;;0.50;99.90;;;;;;5071365;28;20250;-83
2021/01/30 11:53:24;;;;;;;0.60;0.60;;;0.60;99.90;;;;;;5071270;28;20208;-83
2021/01/30 11:55:51;;;;;;;0.60;0.60;;;0.60;99.90;;;;;;5070806;28;20210;-83
2021/01/30 11:58:18;;;;;;;0.50;0.50;;;0.70;99.90;;;;;;5063253;28;20695;-88
2021/01/30 12:00:45;;;;;;;0.55;0.55;;;0.90;99.90;;;;;;5059805;28;20257;-84
2021/01/30 12:03:20;;;;;;;0.60;0.60;;;1.70;99.90;;;;;;5068473;28;20250;-83
2021/01/30 12:05:49;;;;;;;0.60;0.60;;;1.80;99.90;;;;;;5070527;28;20202;-86
2021/01/30 12:08:17;;;;;;;0.50;0.50;;;1.90;99.90;;;;;;5083460;28;20258;-90
2021/01/30 12:10:45;;;;;;;0.60;0.60;;;2.20;99.90;;;;;;5075531;28;20199;-83
2021/01/30 12:13:13;;;;;;;0.60;0.60;;;1.90;99.90;;;;;;5071192;28;20215;-82
2021/01/30 12:15:39;;;;;;;0.60;0.60;;;2.20;99.90;;;;;;5070101;28;20203;-82
2021/01/30 12:18:10;;;;;;;0.50;0.50;;;2.30;99.90;;;;;;5069637;28;20196;-81
2021/01/30 12:20:37;;;;;;;0.60;0.60;;;2.30;99.90;;;;;;5070618;28;20683;-82
2021/01/30 12:23:03;;;;;;;0.60;0.60;;;2.60;99.90;;;;;;5071084;28;20195;-81
2021/01/30 12:25:31;;;;;;;0.60;0.60;;;3.00;99.90;;;;;;5070458;28;20203;-82
2021/01/30 12:27:59;;;;;;;0.50;0.50;;;2.60;99.90;;;;;;5077493;28;20224;-82
2021/01/30 12:30:29;;;;;;;0.60;0.60;;;2.40;99.90;;;;;;5076617;28;20223;-82
2021/01/30 12:32:55;;;;;;;0.60;0.60;;;2.90;99.90;;;;;;5088513;28;20198;-81
2021/01/30 12:35:25;;;;;;;0.60;0.60;;;3.20;99.90;;;;;;5085823;28;20203;-81
2021/01/30 12:37:51;;;;;;;0.60;0.60;;;3.20;99.90;;;;;;5076265;28;20225;-81
2021/01/30 12:40:19;;;;;;;0.50;0.50;;;3.50;99.90;;;;;;5076047;28;20207;-81
2021/01/30 12:42:47;;;;;;;0.60;0.60;;;3.80;99.90;;;;;;5088211;28;20195;-81
2021/01/30 12:45:14;;;;;;;0.60;0.60;;;3.40;99.90;;;;;;5087266;28;20210;-81
2021/01/30 12:47:41;;;;;;;0.60;0.60;;;2.70;99.90;;;;;;5090864;28;20315;-81
2021/01/30 12:50:09;;;;;;;0.50;0.50;;;2.10;99.90;;;;;;5090972;28;20227;-80
2021/01/30 12:52:35;;;;;;;0.60;0.60;;;2.10;99.90;;;;;;5091177;28;20195;-80
2021/01/30 12:55:02;;;;;;;0.60;0.60;;;1.60;99.90;;;;;;5090829;28;20210;-80
2021/01/30 12:57:28;;;;;;;0.50;0.50;;;1.00;99.90;;;;;;5090840;28;20431;-81
2021/01/30 12:59:55;;;;;;;0.60;0.60;;;0.70;99.90;;;;;;5090160;28;20583;-80
2021/01/30 13:02:30;;;;;;;0.60;0.60;;;0.60;99.90;;;;;;5091082;28;20283;-80
2021/01/30 13:04:56;;;;;;;0.60;0.60;;;1.00;99.90;;;;;;5090449;28;20198;-80
2021/01/30 13:07:22;;;;;;;0.60;0.60;;;1.30;99.90;;;;;;5090933;28;20600;-86
2021/01/30 13:09:48;;;;;;;0.60;0.60;;;1.60;99.90;;;;;;5090462;28;20203;-80
2021/01/30 13:12:17;;;;;;;0.60;0.60;;;1.50;99.90;;;;;;5075618;28;20196;-80
2021/01/30 13:14:43;;;;;;;0.60;0.60;;;1.30;99.90;;;;;;5059279;28;20261;-80
2021/01/30 13:17:10;;;;;;;0.60;0.60;;;1.50;99.90;;;;;;5070406;28;20203;-79